sensor_id;sensor_type;location;lat;lon;timestamp;pressure;altitude;pressure_sealevel;temperature;humidity
10658;BME280;5377;43.276;26.930;2023-04-27T00:01:31;98578.53;;;10.00;99.79
10658;BME280;5377;43.276;26.930;2023-04-27T00:03:57;98592.13;;;9.99;100.00
10658;BME280;5377;43.276;26.930;2023-04-27T00:06:26;98591.19;;;9.80;100.00
10658;BME280;5377;43.276;26.930;2023-04-27T00:08:52;98598.16;;;9.81;100.00
10658;BME280;5377;43.276;26.930;2023-04-27T00:11:19;98595.06;;;9.84;100.00
10658;BME280;5377;43.276;26.930;2023-04-27T00:13:46;98592.41;;;9.84;99.84
10658;BME280;5377;43.276;26.930;2023-04-27T00:16:13;98598.34;;;9.86;100.00
10658;BME280;5377;43.276;26.930;2023-04-27T00:18:40;98597.56;;;9.79;100.00
10658;BME280;5377;43.276;26.930;2023-04-27T00:21:07;98604.16;;;9.77;99.64
10658;BME280;5377;43.276;26.930;2023-04-27T00:23:35;98607.03;;;9.75;99.03
10658;BME280;5377;43.276;26.930;2023-04-27T00:26:02;98603.75;;;9.66;98.25
10658;BME280;5377;43.276;26.930;2023-04-27T00:28:29;98588.97;;;9.57;97.85
10658;BME280;5377;43.276;26.930;2023-04-27T00:30:56;98608.28;;;9.66;99.24
10658;BME280;5377;43.276;26.930;2023-04-27T00:33:23;98602.50;;;9.69;98.47
10658;BME280;5377;43.276;26.930;2023-04-27T00:35:49;98611.16;;;9.64;97.91
10658;BME280;5377;43.276;26.930;2023-04-27T00:38:16;98616.13;;;9.54;96.64
10658;BME280;5377;43.276;26.930;2023-04-27T00:40:44;98621.69;;;9.53;96.35
10658;BME280;5377;43.276;26.930;2023-04-27T00:43:11;98617.75;;;9.55;96.72
10658;BME280;5377;43.276;26.930;2023-04-27T00:45:41;98627.22;;;9.58;95.45
10658;BME280;5377;43.276;26.930;2023-04-27T00:48:08;98632.56;;;9.58;96.21
10658;BME280;5377;43.276;26.930;2023-04-27T00:50:35;98629.28;;;9.56;95.22
10658;BME280;5377;43.276;26.930;2023-04-27T00:53:04;98626.63;;;9.49;95.99
10658;BME280;5377;43.276;26.930;2023-04-27T00:55:31;98612.22;;;9.50;94.84
10658;BME280;5377;43.276;26.930;2023-04-27T00:57:59;98627.25;;;9.45;94.91
10658;BME280;5377;43.276;26.930;2023-04-27T01:00:26;98625.81;;;9.35;95.29
10658;BME280;5377;43.276;26.930;2023-04-27T01:02:54;98624.78;;;9.23;96.72
10658;BME280;5377;43.276;26.930;2023-04-27T01:05:21;98632.59;;;9.18;97.83
10658;BME280;5377;43.276;26.930;2023-04-27T01:07:48;98632.16;;;9.34;98.54
10658;BME280;5377;43.276;26.930;2023-04-27T01:10:15;98624.78;;;9.30;99.72
10658;BME280;5377;43.276;26.930;2023-04-27T01:12:42;98637.53;;;9.34;100.00
10658;BME280;5377;43.276;26.930;2023-04-27T01:15:10;98633.81;;;9.35;100.00
10658;BME280;5377;43.276;26.930;2023-04-27T01:17:37;98634.88;;;9.41;100.00
10658;BME280;5377;43.276;26.930;2023-04-27T01:20:05;98637.94;;;9.45;100.00
10658;BME280;5377;43.276;26.930;2023-04-27T01:22:34;98642.88;;;9.41;99.28
10658;BME280;5377;43.276;26.930;2023-04-27T01:25:03;98647.19;;;9.35;98.84
10658;BME280;5377;43.276;26.930;2023-04-27T01:27:30;98650.09;;;9.41;97.84
10658;BME280;5377;43.276;26.930;2023-04-27T01:29:57;98653.16;;;9.37;99.09
10658;BME280;5377;43.276;26.930;2023-04-27T01:32:24;98655.63;;;9.39;98.75
10658;BME280;5377;43.276;26.930;2023-04-27T01:34:51;98652.31;;;9.30;97.70
10658;BME280;5377;43.276;26.930;2023-04-27T01:37:18;98666.31;;;9.32;98.10
10658;BME280;5377;43.276;26.930;2023-04-27T01:39:45;98661.81;;;9.40;96.56
10658;BME280;5377;43.276;26.930;2023-04-27T01:42:14;98673.09;;;9.42;95.94
10658;BME280;5377;43.276;26.930;2023-04-27T01:44:41;98675.56;;;9.50;96.04
10658;BME280;5377;43.276;26.930;2023-04-27T01:47:08;98669.59;;;9.48;95.01
10658;BME280;5377;43.276;26.930;2023-04-27T01:49:34;98680.91;;;9.43;95.38
10658;BME280;5377;43.276;26.930;2023-04-27T01:52:01;98677.84;;;9.40;95.27
10658;BME280;5377;43.276;26.930;2023-04-27T01:54:28;98687.69;;;9.32;94.68
10658;BME280;5377;43.276;26.930;2023-04-27T01:56:55;98693.88;;;9.40;94.61
10658;BME280;5377;43.276;26.930;2023-04-27T01:59:24;98690.59;;;9.37;96.16
10658;BME280;5377;43.276;26.930;2023-04-27T02:01:51;98688.72;;;9.31;96.04
10658;BME280;5377;43.276;26.930;2023-04-27T02:04:18;98687.06;;;9.17;96.40
10658;BME280;5377;43.276;26.930;2023-04-27T02:06:45;98651.09;;;9.06;97.83
10658;BME280;5377;43.276;26.930;2023-04-27T02:09:12;98694.88;;;9.25;96.60
10658;BME280;5377;43.276;26.930;2023-04-27T02:11:38;98700.00;;;9.27;96.64
10658;BME280;5377;43.276;26.930;2023-04-27T02:14:05;98698.56;;;9.18;97.85
10658;BME280;5377;43.276;26.930;2023-04-27T02:16:33;98702.47;;;9.22;96.80
10658;BME280;5377;43.276;26.930;2023-04-27T02:19:00;98707.81;;;9.15;97.24
10658;BME280;5377;43.276;26.930;2023-04-27T02:21:27;98704.09;;;8.96;96.66
10658;BME280;5377;43.276;26.930;2023-04-27T02:23:54;98706.97;;;9.01;96.99
10658;BME280;5377;43.276;26.930;2023-04-27T02:26:21;98718.91;;;9.05;97.10
10658;BME280;5377;43.276;26.930;2023-04-27T02:28:53;98706.97;;;8.95;97.59
10658;BME280;5377;43.276;26.930;2023-04-27T02:31:21;98714.81;;;9.03;97.87
10658;BME280;5377;43.276;26.930;2023-04-27T02:33:49;98729.34;;;9.00;97.12
10658;BME280;5377;43.276;26.930;2023-04-27T02:36:16;98727.97;;;9.11;97.29
10658;BME280;5377;43.276;26.930;2023-04-27T02:38:42;98706.97;;;8.95;96.66
10658;BME280;5377;43.276;26.930;2023-04-27T02:41:09;98735.34;;;9.09;97.14
10658;BME280;5377;43.276;26.930;2023-04-27T02:43:36;98736.59;;;9.13;97.30
10658;BME280;5377;43.276;26.930;2023-04-27T02:46:03;98732.91;;;9.21;100.00
10658;BME280;5377;43.276;26.930;2023-04-27T02:48:30;98740.91;;;9.34;100.00
10658;BME280;5377;43.276;26.930;2023-04-27T02:50:58;98744.44;;;9.48;100.00
10658;BME280;5377;43.276;26.930;2023-04-27T02:53:28;98744.25;;;9.49;100.00
10658;BME280;5377;43.276;26.930;2023-04-27T02:55:55;98747.94;;;9.42;100.00
10658;BME280;5377;43.276;26.930;2023-04-27T02:58:22;98756.38;;;9.45;100.00
10658;BME280;5377;43.276;26.930;2023-04-27T03:00:52;98761.31;;;9.42;100.00
10658;BME280;5377;43.276;26.930;2023-04-27T03:03:19;98775.69;;;9.41;100.00
10658;BME280;5377;43.276;26.930;2023-04-27T03:05:46;98767.06;;;9.45;100.00
10658;BME280;5377;43.276;26.930;2023-04-27T03:08:14;98766.25;;;9.45;100.00
10658;BME280;5377;43.276;26.930;2023-04-27T03:10:41;98768.72;;;9.46;100.00
10658;BME280;5377;43.276;26.930;2023-04-27T03:13:08;98779.81;;;9.43;100.00
10658;BME280;5377;43.276;26.930;2023-04-27T03:15:35;98767.25;;;9.30;100.00
10658;BME280;5377;43.276;26.930;2023-04-27T03:18:02;98763.53;;;9.25;100.00
10658;BME280;5377;43.276;26.930;2023-04-27T03:20:29;98775.03;;;9.25;100.00
10658;BME280;5377;43.276;26.930;2023-04-27T03:22:56;98775.25;;;9.17;100.00
10658;BME280;5377;43.276;26.930;2023-04-27T03:25:24;98780.38;;;9.12;100.00
10658;BME280;5377;43.276;26.930;2023-04-27T03:27:51;98777.50;;;9.14;100.00
10658;BME280;5377;43.276;26.930;2023-04-27T03:30:18;98776.63;;;9.00;100.00
10658;BME280;5377;43.276;26.930;2023-04-27T03:32:45;98793.84;;;8.84;100.00
10658;BME280;5377;43.276;26.930;2023-04-27T03:35:12;98785.19;;;8.82;100.00
10658;BME280;5377;43.276;26.930;2023-04-27T03:37:38;98781.25;;;8.71;100.00
10658;BME280;5377;43.276;26.930;2023-04-27T03:40:06;98786.34;;;8.66;100.00
10658;BME280;5377;43.276;26.930;2023-04-27T03:42:34;98788.59;;;8.63;100.00
10658;BME280;5377;43.276;26.930;2023-04-27T03:45:01;98797.84;;;8.67;100.00
10658;BME280;5377;43.276;26.930;2023-04-27T03:47:29;98797.63;;;8.62;100.00
10658;BME280;5377;43.276;26.930;2023-04-27T03:49:56;98791.13;;;8.71;100.00
10658;BME280;5377;43.276;26.930;2023-04-27T03:52:23;98801.28;;;8.54;100.00
10658;BME280;5377;43.276;26.930;2023-04-27T03:54:49;98809.31;;;8.54;100.00
10658;BME280;5377;43.276;26.930;2023-04-27T03:57:16;98810.47;;;8.38;100.00
10658;BME280;5377;43.276;26.930;2023-04-27T03:59:44;98811.94;;;8.48;100.00
10658;BME280;5377;43.276;26.930;2023-04-27T04:02:11;98809.25;;;8.41;100.00
10658;BME280;5377;43.276;26.930;2023-04-27T04:04:39;98813.03;;;8.32;100.00
10658;BME280;5377;43.276;26.930;2023-04-27T04:07:05;98819.06;;;8.34;100.00
10658;BME280;5377;43.276;26.930;2023-04-27T04:09:32;98818.72;;;8.22;100.00
10658;BME280;5377;43.276;26.930;2023-04-27T04:11:59;98811.34;;;8.24;100.00
10658;BME280;5377;43.276;26.930;2023-04-27T04:14:26;98819.53;;;8.23;100.00
10658;BME280;5377;43.276;26.930;2023-04-27T04:16:54;98826.72;;;8.22;100.00
10658;BME280;5377;43.276;26.930;2023-04-27T04:19:21;98835.94;;;8.20;100.00
10658;BME280;5377;43.276;26.930;2023-04-27T04:21:48;98832.69;;;8.24;100.00
10658;BME280;5377;43.276;26.930;2023-04-27T04:24:15;98828.56;;;8.22;100.00
10658;BME280;5377;43.276;26.930;2023-04-27T04:26:41;98813.75;;;8.12;100.00
10658;BME280;5377;43.276;26.930;2023-04-27T04:29:08;98827.94;;;8.20;100.00
10658;BME280;5377;43.276;26.930;2023-04-27T04:31:35;98834.03;;;8.35;100.00
10658;BME280;5377;43.276;26.930;2023-04-27T04:34:03;98831.59;;;8.40;100.00
10658;BME280;5377;43.276;26.930;2023-04-27T04:36:30;98828.34;;;8.44;100.00
10658;BME280;5377;43.276;26.930;2023-04-27T04:38:57;98829.38;;;8.43;100.00
10658;BME280;5377;43.276;26.930;2023-04-27T04:41:24;98830.84;;;8.53;100.00
10658;BME280;5377;43.276;26.930;2023-04-27T04:43:51;98824.31;;;8.62;100.00
10658;BME280;5377;43.276;26.930;2023-04-27T04:46:18;98843.59;;;8.57;100.00
10658;BME280;5377;43.276;26.930;2023-04-27T04:48:46;98833.22;;;8.69;100.00
10658;BME280;5377;43.276;26.930;2023-04-27T04:51:14;98828.31;;;8.72;100.00
10658;BME280;5377;43.276;26.930;2023-04-27T04:53:41;98826.88;;;8.77;100.00
10658;BME280;5377;43.276;26.930;2023-04-27T04:56:09;98831.81;;;8.80;100.00
10658;BME280;5377;43.276;26.930;2023-04-27T04:58:36;98830.16;;;8.79;100.00
10658;BME280;5377;43.276;26.930;2023-04-27T05:01:02;98827.72;;;8.84;100.00
10658;BME280;5377;43.276;26.930;2023-04-27T05:03:29;98832.25;;;8.90;100.00
10658;BME280;5377;43.276;26.930;2023-04-27T05:05:56;98832.91;;;8.98;100.00
10658;BME280;5377;43.276;26.930;2023-04-27T05:08:24;98823.84;;;8.93;100.00
10658;BME280;5377;43.276;26.930;2023-04-27T05:10:52;98845.69;;;9.03;100.00
10658;BME280;5377;43.276;26.930;2023-04-27T05:13:19;98847.78;;;9.14;100.00
10658;BME280;5377;43.276;26.930;2023-04-27T05:15:46;98849.25;;;9.23;100.00
10658;BME280;5377;43.276;26.930;2023-04-27T05:18:12;98836.75;;;9.37;100.00
10658;BME280;5377;43.276;26.930;2023-04-27T05:20:39;98841.50;;;9.42;100.00
10658;BME280;5377;43.276;26.930;2023-04-27T05:23:06;98846.44;;;9.45;100.00
10658;BME280;5377;43.276;26.930;2023-04-27T05:25:34;98846.22;;;9.46;100.00
10658;BME280;5377;43.276;26.930;2023-04-27T05:28:06;98843.78;;;9.58;100.00
10658;BME280;5377;43.276;26.930;2023-04-27T05:30:32;98850.38;;;9.62;100.00
10658;BME280;5377;43.276;26.930;2023-04-27T05:32:59;98847.72;;;9.75;100.00
10658;BME280;5377;43.276;26.930;2023-04-27T05:35:26;98847.31;;;9.85;100.00
10658;BME280;5377;43.276;26.930;2023-04-27T05:37:53;98850.19;;;9.83;100.00
10658;BME280;5377;43.276;26.930;2023-04-27T05:40:20;98848.75;;;9.87;98.36
10658;BME280;5377;43.276;26.930;2023-04-27T05:42:48;98855.34;;;9.91;96.73
10658;BME280;5377;43.276;26.930;2023-04-27T05:45:16;98847.09;;;9.86;96.11
10658;BME280;5377;43.276;26.930;2023-04-27T05:47:42;98857.19;;;9.97;96.57
10658;BME280;5377;43.276;26.930;2023-04-27T05:50:10;98853.47;;;9.98;96.89
10658;BME280;5377;43.276;26.930;2023-04-27T05:52:37;98857.41;;;10.09;98.19
10658;BME280;5377;43.276;26.930;2023-04-27T05:55:05;98859.25;;;10.02;92.97
10658;BME280;5377;43.276;26.930;2023-04-27T05:57:32;98870.59;;;10.11;91.05
10658;BME280;5377;43.276;26.930;2023-04-27T06:00:01;98869.53;;;9.98;91.07
10658;BME280;5377;43.276;26.930;2023-04-27T06:02:31;98859.03;;;10.04;90.75
10658;BME280;5377;43.276;26.930;2023-04-27T06:04:58;98860.50;;;10.26;89.16
10658;BME280;5377;43.276;26.930;2023-04-27T06:07:25;98871.41;;;10.31;88.78
10658;BME280;5377;43.276;26.930;2023-04-27T06:09:51;98872.03;;;10.33;87.88
10658;BME280;5377;43.276;26.930;2023-04-27T06:12:18;98859.25;;;10.35;86.21
10658;BME280;5377;43.276;26.930;2023-04-27T06:14:45;98863.59;;;10.43;84.65
10658;BME280;5377;43.276;26.930;2023-04-27T06:17:13;98864.41;;;10.37;85.29
10658;BME280;5377;43.276;26.930;2023-04-27T06:19:40;98864.81;;;10.53;88.29
10658;BME280;5377;43.276;26.930;2023-04-27T06:22:07;98870.78;;;10.55;84.08
10658;BME280;5377;43.276;26.930;2023-04-27T06:24:35;98857.00;;;10.45;83.83
10658;BME280;5377;43.276;26.930;2023-04-27T06:27:02;98866.44;;;10.61;80.80
10658;BME280;5377;43.276;26.930;2023-04-27T06:29:29;98866.59;;;10.73;80.67
10658;BME280;5377;43.276;26.930;2023-04-27T06:31:56;98869.56;;;10.51;82.08
10658;BME280;5377;43.276;26.930;2023-04-27T06:34:24;98862.56;;;10.30;80.43
10658;BME280;5377;43.276;26.930;2023-04-27T06:36:51;98871.63;;;10.43;81.76
10658;BME280;5377;43.276;26.930;2023-04-27T06:39:18;98869.94;;;10.61;81.41
10658;BME280;5377;43.276;26.930;2023-04-27T06:41:44;98873.22;;;10.63;80.31
10658;BME280;5377;43.276;26.930;2023-04-27T06:44:11;98873.81;;;10.79;80.22
10658;BME280;5377;43.276;26.930;2023-04-27T06:46:38;98873.16;;;10.90;81.32
10658;BME280;5377;43.276;26.930;2023-04-27T06:49:05;98876.47;;;10.85;78.96
10658;BME280;5377;43.276;26.930;2023-04-27T06:51:33;98863.81;;;11.06;76.95
10658;BME280;5377;43.276;26.930;2023-04-27T06:54:00;98880.53;;;11.01;77.84
10658;BME280;5377;43.276;26.930;2023-04-27T06:56:26;98863.31;;;11.29;76.68
10658;BME280;5377;43.276;26.930;2023-04-27T06:58:53;98861.22;;;11.37;75.42
10658;BME280;5377;43.276;26.930;2023-04-27T07:01:20;98862.47;;;11.35;76.31
10658;BME280;5377;43.276;26.930;2023-04-27T07:03:47;98870.91;;;11.38;75.34
10658;BME280;5377;43.276;26.930;2023-04-27T07:06:14;98864.34;;;11.28;74.02
10658;BME280;5377;43.276;26.930;2023-04-27T07:08:43;98865.16;;;11.35;73.34
10658;BME280;5377;43.276;26.930;2023-04-27T07:11:09;98866.47;;;11.57;71.94
10658;BME280;5377;43.276;26.930;2023-04-27T07:13:36;98876.00;;;11.53;70.79
10658;BME280;5377;43.276;26.930;2023-04-27T07:16:04;98869.34;;;11.62;70.58
10658;BME280;5377;43.276;26.930;2023-04-27T07:18:30;98877.41;;;11.94;70.89
10658;BME280;5377;43.276;26.930;2023-04-27T07:20:57;98861.75;;;11.91;69.70
10658;BME280;5377;43.276;26.930;2023-04-27T07:23:24;98870.56;;;11.98;66.43
10658;BME280;5377;43.276;26.930;2023-04-27T07:25:52;98868.94;;;12.22;66.11
10658;BME280;5377;43.276;26.930;2023-04-27T07:28:19;98864.22;;;12.17;66.27
10658;BME280;5377;43.276;26.930;2023-04-27T07:30:46;98866.94;;;12.35;67.02
10658;BME280;5377;43.276;26.930;2023-04-27T07:33:13;98870.03;;;11.89;66.79
10658;BME280;5377;43.276;26.930;2023-04-27T07:35:40;98882.22;;;12.16;68.40
10658;BME280;5377;43.276;26.930;2023-04-27T07:38:06;98872.78;;;12.32;68.88
10658;BME280;5377;43.276;26.930;2023-04-27T07:40:33;98868.53;;;12.43;65.35
10658;BME280;5377;43.276;26.930;2023-04-27T07:43:02;98867.44;;;12.51;65.99
10658;BME280;5377;43.276;26.930;2023-04-27T07:45:29;98849.03;;;12.54;65.93
10658;BME280;5377;43.276;26.930;2023-04-27T07:47:57;98858.59;;;12.43;64.57
10658;BME280;5377;43.276;26.930;2023-04-27T07:50:25;98860.28;;;12.81;66.39
10658;BME280;5377;43.276;26.930;2023-04-27T07:52:52;98845.97;;;13.05;63.22
10658;BME280;5377;43.276;26.930;2023-04-27T07:55:19;98855.38;;;13.33;61.58
10658;BME280;5377;43.276;26.930;2023-04-27T07:57:47;98851.72;;;13.57;59.44
10658;BME280;5377;43.276;26.930;2023-04-27T08:00:16;98863.78;;;13.55;58.20
10658;BME280;5377;43.276;26.930;2023-04-27T08:02:43;98856.56;;;13.67;58.31
10658;BME280;5377;43.276;26.930;2023-04-27T08:05:10;98852.13;;;14.26;57.12
10658;BME280;5377;43.276;26.930;2023-04-27T08:07:37;98860.94;;;14.68;56.42
10658;BME280;5377;43.276;26.930;2023-04-27T08:10:06;98863.00;;;15.01;53.94
10658;BME280;5377;43.276;26.930;2023-04-27T08:12:33;98859.03;;;14.92;55.99
10658;BME280;5377;43.276;26.930;2023-04-27T08:15:00;98853.41;;;14.93;54.12
10658;BME280;5377;43.276;26.930;2023-04-27T08:17:28;98859.00;;;15.04;52.61
10658;BME280;5377;43.276;26.930;2023-04-27T08:19:55;98857.09;;;15.16;52.41
10658;BME280;5377;43.276;26.930;2023-04-27T08:22:22;98857.25;;;15.38;51.13
10658;BME280;5377;43.276;26.930;2023-04-27T08:24:49;98858.28;;;15.48;51.42
10658;BME280;5377;43.276;26.930;2023-04-27T08:27:15;98857.22;;;15.49;51.53
10658;BME280;5377;43.276;26.930;2023-04-27T08:29:45;98848.59;;;15.36;48.53
10658;BME280;5377;43.276;26.930;2023-04-27T08:32:12;98863.66;;;15.48;49.39
10658;BME280;5377;43.276;26.930;2023-04-27T08:34:41;98863.53;;;15.83;49.11
10658;BME280;5377;43.276;26.930;2023-04-27T08:37:09;98860.47;;;16.42;45.83
10658;BME280;5377;43.276;26.930;2023-04-27T08:39:36;98858.25;;;16.72;46.46
10658;BME280;5377;43.276;26.930;2023-04-27T08:42:09;98854.41;;;17.34;45.90
10658;BME280;5377;43.276;26.930;2023-04-27T08:44:37;98846.72;;;17.48;45.31
10658;BME280;5377;43.276;26.930;2023-04-27T08:47:05;98859.09;;;17.65;46.56
10658;BME280;5377;43.276;26.930;2023-04-27T08:49:33;98850.59;;;18.75;42.49
10658;BME280;5377;43.276;26.930;2023-04-27T08:52:09;98849.34;;;18.55;41.37
10658;BME280;5377;43.276;26.930;2023-04-27T08:54:37;98833.94;;;19.13;42.56
10658;BME280;5377;43.276;26.930;2023-04-27T08:57:08;98815.41;;;19.83;40.45
10658;BME280;5377;43.276;26.930;2023-04-27T08:59:36;98845.03;;;19.89;40.66
10658;BME280;5377;43.276;26.930;2023-04-27T09:02:03;98820.28;;;19.81;40.95
10658;BME280;5377;43.276;26.930;2023-04-27T09:04:36;98820.38;;;19.18;41.18
10658;BME280;5377;43.276;26.930;2023-04-27T09:07:12;98847.34;;;18.78;42.50
10658;BME280;5377;43.276;26.930;2023-04-27T09:09:39;98842.47;;;18.80;41.37
10658;BME280;5377;43.276;26.930;2023-04-27T09:12:16;98838.97;;;18.10;42.60
10658;BME280;5377;43.276;26.930;2023-04-27T09:14:55;98835.09;;;16.81;44.06
10658;BME280;5377;43.276;26.930;2023-04-27T09:17:25;98845.09;;;16.81;44.67
10658;BME280;5377;43.276;26.930;2023-04-27T09:20:02;98848.56;;;16.76;45.75
10658;BME280;5377;43.276;26.930;2023-04-27T09:22:42;98844.66;;;16.34;43.62
10658;BME280;5377;43.276;26.930;2023-04-27T09:25:10;98840.31;;;15.99;45.23
10658;BME280;5377;43.276;26.930;2023-04-27T09:27:37;98852.84;;;16.05;45.34
10658;BME280;5377;43.276;26.930;2023-04-27T09:30:12;98849.94;;;15.78;45.78
10658;BME280;5377;43.276;26.930;2023-04-27T09:32:39;98840.78;;;15.63;45.04
10658;BME280;5377;43.276;26.930;2023-04-27T09:35:20;98845.19;;;14.88;46.36
10658;BME280;5377;43.276;26.930;2023-04-27T09:37:50;98855.53;;;14.45;47.75
10658;BME280;5377;43.276;26.930;2023-04-27T09:40:19;98855.88;;;14.25;48.63
10658;BME280;5377;43.276;26.930;2023-04-27T09:42:48;98858.13;;;13.86;49.63
10658;BME280;5377;43.276;26.930;2023-04-27T09:45:16;98858.16;;;13.56;50.49
10658;BME280;5377;43.276;26.930;2023-04-27T09:47:44;98859.72;;;13.64;51.42
10658;BME280;5377;43.276;26.930;2023-04-27T09:50:12;98854.09;;;13.65;52.12
10658;BME280;5377;43.276;26.930;2023-04-27T09:52:39;98862.31;;;13.70;53.12
10658;BME280;5377;43.276;26.930;2023-04-27T09:55:09;98859.25;;;13.67;53.47
10658;BME280;5377;43.276;26.930;2023-04-27T09:57:39;98866.88;;;13.82;53.61
10658;BME280;5377;43.276;26.930;2023-04-27T10:00:17;98859.41;;;13.84;54.03
10658;BME280;5377;43.276;26.930;2023-04-27T10:02:57;98863.13;;;13.83;54.75
10658;BME280;5377;43.276;26.930;2023-04-27T10:05:49;98854.09;;;13.65;53.57
10658;BME280;5377;43.276;26.930;2023-04-27T10:08:28;98852.31;;;13.59;53.84
10658;BME280;5377;43.276;26.930;2023-04-27T10:10:56;98857.59;;;13.36;54.17
10658;BME280;5377;43.276;26.930;2023-04-27T10:13:24;98856.66;;;13.30;54.75
10658;BME280;5377;43.276;26.930;2023-04-27T10:15:52;98863.22;;;13.34;55.04
10658;BME280;5377;43.276;26.930;2023-04-27T10:18:26;98860.66;;;13.03;55.54
10658;BME280;5377;43.276;26.930;2023-04-27T10:20:53;98863.72;;;13.06;56.48
10658;BME280;5377;43.276;26.930;2023-04-27T10:23:23;98855.94;;;13.17;55.72
10658;BME280;5377;43.276;26.930;2023-04-27T10:25:50;98867.59;;;13.10;55.55
10658;BME280;5377;43.276;26.930;2023-04-27T10:28:19;98867.84;;;13.27;56.47
10658;BME280;5377;43.276;26.930;2023-04-27T10:30:47;98866.94;;;13.33;55.12
10658;BME280;5377;43.276;26.930;2023-04-27T10:33:18;98868.81;;;13.33;55.51
10658;BME280;5377;43.276;26.930;2023-04-27T10:35:53;98876.47;;;13.48;55.89
10658;BME280;5377;43.276;26.930;2023-04-27T10:38:27;98870.94;;;13.61;56.24
10658;BME280;5377;43.276;26.930;2023-04-27T10:40:56;98892.75;;;13.83;56.32
10658;BME280;5377;43.276;26.930;2023-04-27T10:43:28;98872.56;;;14.15;54.91
10658;BME280;5377;43.276;26.930;2023-04-27T10:46:06;98870.97;;;14.38;53.69
10658;BME280;5377;43.276;26.930;2023-04-27T10:48:33;98875.00;;;14.58;53.39
10658;BME280;5377;43.276;26.930;2023-04-27T10:51:00;98866.81;;;14.65;52.76
10658;BME280;5377;43.276;26.930;2023-04-27T10:53:32;98868.38;;;14.89;52.76
10658;BME280;5377;43.276;26.930;2023-04-27T10:55:59;98868.53;;;15.35;52.30
10658;BME280;5377;43.276;26.930;2023-04-27T10:58:28;98856.00;;;15.28;52.74
10658;BME280;5377;43.276;26.930;2023-04-27T11:00:55;98847.69;;;15.30;52.31
10658;BME280;5377;43.276;26.930;2023-04-27T11:03:22;98848.50;;;15.59;50.92
10658;BME280;5377;43.276;26.930;2023-04-27T11:05:58;98845.28;;;15.74;51.19
10658;BME280;5377;43.276;26.930;2023-04-27T11:08:25;98856.72;;;15.52;52.14
10658;BME280;5377;43.276;26.930;2023-04-27T11:10:52;98854.66;;;15.43;50.92
10658;BME280;5377;43.276;26.930;2023-04-27T11:13:22;98863.00;;;14.89;51.34
10658;BME280;5377;43.276;26.930;2023-04-27T11:15:51;98866.53;;;14.78;52.33
10658;BME280;5377;43.276;26.930;2023-04-27T11:18:20;98871.31;;;14.41;52.95
10658;BME280;5377;43.276;26.930;2023-04-27T11:20:49;98868.28;;;14.38;54.57
10658;BME280;5377;43.276;26.930;2023-04-27T11:23:24;98869.81;;;14.33;54.60
10658;BME280;5377;43.276;26.930;2023-04-27T11:25:51;98874.66;;;13.90;54.49
10658;BME280;5377;43.276;26.930;2023-04-27T11:28:19;98876.66;;;13.94;54.70
10658;BME280;5377;43.276;26.930;2023-04-27T11:30:46;98876.00;;;13.69;54.67
10658;BME280;5377;43.276;26.930;2023-04-27T11:33:15;98888.75;;;13.43;55.31
10658;BME280;5377;43.276;26.930;2023-04-27T11:35:42;98877.16;;;13.43;56.17
10658;BME280;5377;43.276;26.930;2023-04-27T11:38:14;98878.56;;;13.46;57.46
10658;BME280;5377;43.276;26.930;2023-04-27T11:40:42;98889.09;;;13.47;56.28
10658;BME280;5377;43.276;26.930;2023-04-27T11:43:11;98885.59;;;13.47;55.73
10658;BME280;5377;43.276;26.930;2023-04-27T11:45:41;98895.03;;;13.56;56.34
10658;BME280;5377;43.276;26.930;2023-04-27T11:48:12;98882.53;;;13.61;55.69
10658;BME280;5377;43.276;26.930;2023-04-27T11:50:40;98887.31;;;13.41;57.71
10658;BME280;5377;43.276;26.930;2023-04-27T11:53:07;98886.28;;;13.42;56.96
10658;BME280;5377;43.276;26.930;2023-04-27T11:55:35;98885.97;;;13.50;58.36
10658;BME280;5377;43.276;26.930;2023-04-27T11:58:01;98885.84;;;13.87;58.23
10658;BME280;5377;43.276;26.930;2023-04-27T12:00:29;98886.78;;;13.81;58.27
10658;BME280;5377;43.276;26.930;2023-04-27T12:02:56;98898.56;;;13.98;58.04
10658;BME280;5377;43.276;26.930;2023-04-27T12:05:23;98892.13;;;13.99;58.04
10658;BME280;5377;43.276;26.930;2023-04-27T12:07:52;98892.28;;;13.86;58.17
10658;BME280;5377;43.276;26.930;2023-04-27T12:10:19;98889.25;;;13.82;56.89
10658;BME280;5377;43.276;26.930;2023-04-27T12:12:46;98900.75;;;13.59;58.49
10658;BME280;5377;43.276;26.930;2023-04-27T12:15:13;98899.47;;;13.62;58.11
10658;BME280;5377;43.276;26.930;2023-04-27T12:17:39;98887.06;;;13.61;58.11
10658;BME280;5377;43.276;26.930;2023-04-27T12:20:07;98901.03;;;13.69;58.97
10658;BME280;5377;43.276;26.930;2023-04-27T12:22:34;98904.09;;;13.73;59.10
10658;BME280;5377;43.276;26.930;2023-04-27T12:25:03;98892.44;;;13.91;58.54
10658;BME280;5377;43.276;26.930;2023-04-27T12:27:30;98897.16;;;13.95;58.19
10658;BME280;5377;43.276;26.930;2023-04-27T12:29:57;98898.34;;;14.11;59.37
10658;BME280;5377;43.276;26.930;2023-04-27T12:32:24;98897.34;;;14.35;58.63
10658;BME280;5377;43.276;26.930;2023-04-27T12:34:52;98885.66;;;14.53;58.06
10658;BME280;5377;43.276;26.930;2023-04-27T12:37:19;98884.59;;;14.66;58.74
10658;BME280;5377;43.276;26.930;2023-04-27T12:39:46;98873.91;;;14.83;56.31
10658;BME280;5377;43.276;26.930;2023-04-27T12:42:14;98876.81;;;15.45;57.71
10658;BME280;5377;43.276;26.930;2023-04-27T12:44:43;98875.53;;;16.04;56.56
10658;BME280;5377;43.276;26.930;2023-04-27T12:47:10;98858.72;;;17.08;52.52
10658;BME280;5377;43.276;26.930;2023-04-27T12:49:37;98859.69;;;17.94;48.71
10658;BME280;5377;43.276;26.930;2023-04-27T12:52:04;98861.09;;;18.34;46.93
10658;BME280;5377;43.276;26.930;2023-04-27T12:54:32;98867.44;;;18.45;48.07
10658;BME280;5377;43.276;26.930;2023-04-27T12:56:58;98871.28;;;18.91;45.21
10658;BME280;5377;43.276;26.930;2023-04-27T12:59:29;98853.13;;;19.59;44.95
10658;BME280;5377;43.276;26.930;2023-04-27T13:01:56;98864.56;;;19.71;42.69
10658;BME280;5377;43.276;26.930;2023-04-27T13:04:23;98857.81;;;20.45;41.50
10658;BME280;5377;43.276;26.930;2023-04-27T13:06:50;98857.97;;;21.09;40.30